Time;durP1;ratioP1;P1;durP2;ratioP2;P2;SDS_P1;SDS_P2;PMS_P1;PMS_P2;Temp;Humidity;BMP_temperature;BMP_pressure;BME280_temperature;BME280_humidity;BME280_pressure;Samples;Min_cycle;Max_cycle;Signal;HPM_P1;HPM_P2
2022/01/16 00:01:42;;;;;;;131.20;46.78;;;4.40;99.90;;;;;;5022028;28;20427;-75
2022/01/16 00:04:06;;;;;;;127.55;45.97;;;4.40;99.90;;;;;;5020415;28;20057;-75
2022/01/16 00:06:33;;;;;;;130.50;47.03;;;4.40;99.90;;;;;;5020965;28;20033;-75
2022/01/16 00:08:59;;;;;;;129.02;48.38;;;4.40;99.90;;;;;;5021124;28;20052;-75
2022/01/16 00:11:25;;;;;;;132.05;47.83;;;4.30;99.90;;;;;;5020492;28;20628;-75
2022/01/16 00:13:51;;;;;;;126.10;48.30;;;4.40;99.90;;;;;;5020221;28;20040;-75
2022/01/16 00:16:17;;;;;;;126.38;47.38;;;4.40;99.90;;;;;;5020898;28;20026;-75
2022/01/16 00:18:50;;;;;;;126.45;46.55;;;4.40;99.90;;;;;;5021475;28;20037;-75
2022/01/16 00:21:39;;;;;;;126.03;47.50;;;4.40;99.90;;;;;;5021549;28;20029;-75
2022/01/16 00:24:06;;;;;;;133.40;47.17;;;4.40;99.90;;;;;;5021688;28;20026;-75
2022/01/16 00:26:32;;;;;;;136.05;48.92;;;4.40;99.90;;;;;;5022235;28;20029;-75
2022/01/16 00:28:58;;;;;;;142.32;49.85;;;4.50;99.90;;;;;;5020445;28;20022;-75
2022/01/16 00:31:24;;;;;;;147.52;50.47;;;4.50;99.90;;;;;;5021266;28;20018;-75
2022/01/16 00:33:51;;;;;;;141.90;48.55;;;4.50;99.90;;;;;;5020964;28;20022;-75
2022/01/16 00:36:19;;;;;;;161.90;51.45;;;4.50;99.90;;;;;;5020298;28;20025;-75
2022/01/16 00:38:46;;;;;;;167.80;52.45;;;4.50;99.90;;;;;;5021050;28;20360;-76
2022/01/16 00:41:13;;;;;;;190.68;54.22;;;4.60;99.90;;;;;;5021034;28;20026;-75
2022/01/16 00:43:38;;;;;;;207.85;55.45;;;4.60;99.90;;;;;;5019788;28;20022;-76
2022/01/16 00:46:04;;;;;;;199.82;57.45;;;4.70;99.90;;;;;;5020857;28;20562;-75
2022/01/16 00:48:30;;;;;;;215.40;56.50;;;4.70;99.90;;;;;;5020557;28;20084;-75
2022/01/16 00:50:55;;;;;;;198.98;56.22;;;4.70;99.90;;;;;;5020116;28;20030;-75
2022/01/16 00:53:21;;;;;;;208.73;56.08;;;4.70;99.90;;;;;;5020216;28;20060;-75
2022/01/16 00:55:46;;;;;;;201.35;55.22;;;4.80;99.90;;;;;;5020379;28;20018;-75
2022/01/16 00:58:12;;;;;;;198.00;54.75;;;4.80;99.90;;;;;;5020486;28;20499;-75
2022/01/16 01:00:38;;;;;;;207.50;58.05;;;4.80;99.90;;;;;;5020044;28;20072;-75
2022/01/16 01:03:06;;;;;;;196.07;55.17;;;4.80;99.90;;;;;;5019912;28;20057;-75
2022/01/16 01:05:32;;;;;;;192.98;56.05;;;4.80;99.90;;;;;;5021123;28;20037;-75
2022/01/16 01:07:58;;;;;;;179.77;52.08;;;4.80;99.90;;;;;;5020038;28;20099;-74
2022/01/16 01:10:29;;;;;;;189.77;53.00;;;4.80;99.90;;;;;;5018291;28;20116;-74
2022/01/16 01:13:06;;;;;;;181.88;53.03;;;4.80;99.90;;;;;;5020522;28;20030;-74
2022/01/16 01:15:40;;;;;;;190.70;54.15;;;4.80;99.90;;;;;;5019957;28;20018;-74
2022/01/16 01:18:06;;;;;;;178.23;52.15;;;4.80;99.90;;;;;;5019206;28;20026;-74
2022/01/16 01:20:31;;;;;;;173.15;52.70;;;4.80;99.90;;;;;;5019617;28;20045;-74
2022/01/16 01:22:57;;;;;;;171.02;52.25;;;4.80;99.90;;;;;;5020051;28;20073;-74
2022/01/16 01:25:23;;;;;;;164.82;51.35;;;4.80;99.90;;;;;;5020269;28;20033;-74
2022/01/16 01:27:49;;;;;;;165.18;51.75;;;4.70;99.90;;;;;;5022839;28;20079;-74
2022/01/16 01:30:18;;;;;;;174.77;54.40;;;4.80;99.90;;;;;;5022794;28;20112;-74
2022/01/16 01:32:46;;;;;;;162.52;51.35;;;4.70;99.90;;;;;;5020274;28;20045;-74
2022/01/16 01:35:14;;;;;;;157.98;51.17;;;4.70;99.90;;;;;;5023555;28;20020;-74
2022/01/16 01:37:41;;;;;;;154.15;51.10;;;4.70;99.90;;;;;;5023532;28;20120;-74
2022/01/16 01:40:10;;;;;;;146.15;49.67;;;4.70;99.90;;;;;;5023499;28;20072;-74
2022/01/16 01:42:44;;;;;;;153.25;52.30;;;4.70;99.90;;;;;;5023031;28;20022;-74
2022/01/16 01:53:24;;;;;;;144.45;48.53;;;4.60;99.90;;;;;;5024526;28;20037;-74
2022/01/16 01:55:49;;;;;;;143.18;50.00;;;4.70;99.90;;;;;;5023522;28;20022;-74
2022/01/16 01:58:15;;;;;;;139.52;50.13;;;4.70;99.90;;;;;;5023338;28;20057;-74
2022/01/16 02:00:42;;;;;;;135.98;48.88;;;4.70;99.90;;;;;;5023332;28;20118;-74
2022/01/16 02:05:36;;;;;;;150.48;52.25;;;4.60;99.90;;;;;;5023763;28;20053;-74
2022/01/16 02:08:05;;;;;;;144.35;52.30;;;4.70;99.90;;;;;;5023763;28;20029;-74
2022/01/16 02:10:32;;;;;;;139.57;51.20;;;4.60;99.90;;;;;;5024080;28;20037;-74
2022/01/16 02:13:03;;;;;;;136.57;51.10;;;4.60;99.90;;;;;;5023574;28;20497;-74
2022/01/16 02:34:42;;;;;;;121.70;50.42;;;4.50;99.90;;;;;;5022529;28;20497;-74
2022/01/16 02:37:12;;;;;;;121.97;50.28;;;4.50;99.90;;;;;;5022019;28;20049;-74
2022/01/16 02:39:48;;;;;;;122.25;49.38;;;4.50;99.90;;;;;;5022566;28;20026;-74
2022/01/16 02:42:14;;;;;;;122.38;50.10;;;4.50;99.90;;;;;;5022317;28;20068;-74
2022/01/16 02:44:46;;;;;;;119.65;50.15;;;4.50;99.90;;;;;;5022228;28;20478;-73
2022/01/16 02:47:14;;;;;;;122.43;51.50;;;4.50;99.90;;;;;;5022230;28;20033;-74
2022/01/16 02:49:41;;;;;;;116.88;50.33;;;4.50;99.90;;;;;;5022501;28;20034;-74
2022/01/16 02:52:15;;;;;;;116.55;50.97;;;4.50;99.90;;;;;;5022526;28;20026;-73
2022/01/16 02:54:42;;;;;;;120.57;52.08;;;4.50;99.90;;;;;;5022278;28;20085;-74
2022/01/16 02:57:11;;;;;;;122.75;51.33;;;4.40;99.90;;;;;;5022181;28;20070;-74
2022/01/16 02:59:37;;;;;;;120.18;52.33;;;4.40;99.90;;;;;;5022305;28;20073;-74
2022/01/16 03:02:05;;;;;;;128.90;53.42;;;4.50;99.90;;;;;;5028660;28;20534;-74
2022/01/16 03:04:31;;;;;;;117.25;48.47;;;4.40;99.90;;;;;;5021950;28;20496;-74
2022/01/16 03:07:02;;;;;;;119.57;51.72;;;4.40;99.90;;;;;;5021650;28;20403;-74
2022/01/16 03:09:49;;;;;;;117.07;50.22;;;4.40;99.90;;;;;;5021744;28;20041;-74
2022/01/16 03:12:14;;;;;;;115.97;49.53;;;4.50;99.90;;;;;;5021368;28;20048;-74
2022/01/16 03:14:40;;;;;;;120.15;51.70;;;4.40;99.90;;;;;;5021452;28;20057;-74
2022/01/16 03:17:06;;;;;;;118.22;50.33;;;4.50;99.90;;;;;;5021711;28;20037;-74
2022/01/16 03:22:16;;;;;;;115.38;51.10;;;4.40;99.90;;;;;;5041479;28;20060;-74
2022/01/16 03:24:44;;;;;;;115.60;51.88;;;4.50;99.90;;;;;;5041726;28;20033;-74
2022/01/16 03:27:14;;;;;;;118.00;50.53;;;4.50;99.90;;;;;;5042048;28;20017;-74
2022/01/16 03:29:41;;;;;;;112.63;49.75;;;4.40;99.90;;;;;;5041795;28;20103;-74
2022/01/16 03:32:10;;;;;;;112.55;50.00;;;4.40;99.90;;;;;;5041387;28;20021;-74
2022/01/16 03:34:36;;;;;;;117.28;49.78;;;4.40;99.90;;;;;;5041866;28;20021;-74
2022/01/16 03:37:03;;;;;;;109.93;48.38;;;4.40;99.90;;;;;;5043638;28;20105;-74
2022/01/16 03:39:28;;;;;;;110.30;49.55;;;4.50;99.90;;;;;;5044536;28;20026;-74
2022/01/16 03:41:56;;;;;;;114.50;49.33;;;4.50;99.90;;;;;;5043592;28;20128;-74
2022/01/16 03:44:22;;;;;;;100.60;46.47;;;4.50;99.90;;;;;;5044265;28;20021;-74
2022/01/16 03:46:48;;;;;;;99.93;47.40;;;4.50;99.90;;;;;;5044141;28;20112;-74
2022/01/16 03:49:22;;;;;;;102.40;46.15;;;4.50;99.90;;;;;;5041014;28;20060;-74
2022/01/16 03:51:50;;;;;;;99.18;44.92;;;4.50;99.90;;;;;;5041289;28;20030;-74
2022/01/16 03:54:18;;;;;;;96.70;44.90;;;4.50;99.90;;;;;;5040614;28;20033;-74
2022/01/16 03:56:44;;;;;;;99.28;45.50;;;4.50;99.90;;;;;;5040816;28;20040;-74
2022/01/16 03:59:10;;;;;;;93.85;45.40;;;4.50;99.90;;;;;;5040025;28;20079;-73
2022/01/16 04:01:36;;;;;;;100.20;45.15;;;4.50;99.90;;;;;;5040283;28;20545;-74
2022/01/16 04:04:03;;;;;;;95.97;45.47;;;4.50;99.90;;;;;;5040816;28;20037;-74
2022/01/16 04:06:29;;;;;;;104.18;44.95;;;4.50;99.90;;;;;;5040543;28;20028;-74
2022/01/16 04:08:55;;;;;;;97.63;44.45;;;4.50;99.90;;;;;;5040563;28;20104;-74
2022/01/16 04:11:22;;;;;;;92.03;42.70;;;4.50;99.90;;;;;;5040143;28;20084;-74
2022/01/16 04:13:53;;;;;;;95.15;43.38;;;4.50;99.90;;;;;;5040935;28;20025;-74
2022/01/16 04:16:23;;;;;;;90.60;42.72;;;4.50;99.90;;;;;;5041215;28;20033;-74
2022/01/16 04:18:51;;;;;;;91.90;42.20;;;4.50;99.90;;;;;;5022379;28;20045;-74
2022/01/16 04:21:22;;;;;;;91.43;41.70;;;4.50;99.90;;;;;;5040982;28;20422;-74
2022/01/16 04:23:49;;;;;;;88.38;41.63;;;4.60;99.90;;;;;;5041106;28;20022;-74
2022/01/16 04:26:16;;;;;;;92.03;41.47;;;4.60;99.90;;;;;;5041781;28;20108;-74
2022/01/16 04:28:41;;;;;;;83.82;40.00;;;4.60;99.90;;;;;;5040758;28;20108;-74
2022/01/16 04:31:08;;;;;;;81.28;39.65;;;4.60;99.90;;;;;;5041823;28;20045;-75
2022/01/16 04:33:34;;;;;;;80.30;38.40;;;4.70;99.90;;;;;;5040331;28;20032;-74
2022/01/16 04:36:00;;;;;;;82.82;37.70;;;4.70;99.90;;;;;;5039382;28;20045;-74
2022/01/16 04:38:25;;;;;;;72.88;35.70;;;4.70;99.90;;;;;;5039475;28;20038;-74
2022/01/16 04:43:47;;;;;;;75.93;35.97;;;4.80;99.90;;;;;;5039944;28;20041;-74
2022/01/16 04:46:17;;;;;;;78.72;36.22;;;4.90;99.90;;;;;;5039374;28;20629;-74
2022/01/16 04:48:43;;;;;;;76.50;36.88;;;4.90;99.90;;;;;;5039421;28;20061;-74
2022/01/16 04:51:09;;;;;;;78.45;36.25;;;4.90;99.90;;;;;;5040584;28;20052;-74
2022/01/16 04:53:35;;;;;;;73.35;35.22;;;4.90;99.90;;;;;;5040075;28;20034;-74
2022/01/16 04:56:01;;;;;;;69.85;33.00;;;5.00;99.90;;;;;;5039923;28;20026;-73
2022/01/16 04:58:27;;;;;;;69.10;32.97;;;5.00;99.90;;;;;;5040964;28;20541;-74
2022/01/16 05:00:54;;;;;;;61.17;31.73;;;5.00;99.90;;;;;;5040184;28;20076;-74
2022/01/16 05:03:20;;;;;;;69.07;32.72;;;5.10;99.90;;;;;;5041469;28;20039;-74
2022/01/16 05:05:46;;;;;;;68.47;31.58;;;5.10;99.90;;;;;;5041618;28;20116;-74
2022/01/16 05:08:11;;;;;;;65.30;30.45;;;5.10;99.90;;;;;;5042909;28;20052;-74
2022/01/16 05:10:37;;;;;;;60.92;30.10;;;5.20;99.90;;;;;;5044558;28;20413;-74
2022/01/16 05:18:45;;;;;;;38.92;19.92;;;5.20;99.90;;;;;;4982933;28;20090;-74
2022/01/16 05:21:11;;;;;;;47.63;20.58;;;5.30;99.90;;;;;;4982776;28;20023;-74
2022/01/16 05:23:37;;;;;;;39.47;16.45;;;5.30;99.90;;;;;;4983164;28;20030;-74
2022/01/16 05:26:04;;;;;;;31.67;12.35;;;5.40;99.90;;;;;;4984064;28;20054;-74
2022/01/16 05:28:30;;;;;;;27.48;10.15;;;5.50;99.90;;;;;;4983338;28;20166;-74
2022/01/16 05:30:56;;;;;;;25.70;9.27;;;5.70;99.90;;;;;;4983626;28;20030;-74
2022/01/16 05:33:21;;;;;;;25.38;8.52;;;5.80;99.90;;;;;;4983794;28;20326;-74
2022/01/16 05:35:47;;;;;;;19.92;7.93;;;6.00;99.90;;;;;;4983530;28;20034;-73
2022/01/16 05:38:13;;;;;;;16.33;6.65;;;6.10;99.90;;;;;;4983917;28;20042;-74
2022/01/16 05:40:39;;;;;;;14.65;6.35;;;6.20;99.90;;;;;;4984132;28;20066;-74
2022/01/16 05:43:05;;;;;;;16.88;5.78;;;6.20;99.90;;;;;;4984590;28;20090;-74
2022/01/16 05:45:31;;;;;;;13.93;5.30;;;6.30;99.90;;;;;;4984208;28;20085;-74
2022/01/16 05:47:56;;;;;;;12.10;4.45;;;6.40;99.90;;;;;;4982695;28;20026;-74
2022/01/16 05:50:23;;;;;;;12.38;4.90;;;6.50;99.90;;;;;;4983746;28;20507;-74
2022/01/16 05:52:49;;;;;;;12.88;4.65;;;6.60;99.90;;;;;;5025296;28;20018;-74
2022/01/16 05:55:16;;;;;;;10.45;4.38;;;6.70;99.90;;;;;;5024827;28;20033;-74
2022/01/16 05:57:42;;;;;;;8.93;3.60;;;6.70;99.90;;;;;;5025078;28;20030;-74
2022/01/16 06:00:10;;;;;;;10.75;3.78;;;6.80;99.90;;;;;;5023760;28;20391;-74
2022/01/16 06:02:36;;;;;;;8.35;3.58;;;6.80;99.90;;;;;;5024246;28;20035;-74
2022/01/16 06:05:02;;;;;;;8.60;3.40;;;6.90;99.90;;;;;;5025648;28;20581;-74
2022/01/16 06:07:28;;;;;;;11.27;3.85;;;6.90;99.90;;;;;;5007979;28;20030;-75
2022/01/16 06:09:54;;;;;;;6.75;4.00;;;6.90;99.90;;;;;;5026043;28;20055;-74
2022/01/16 06:12:20;;;;;;;8.65;4.13;;;6.90;99.90;;;;;;5025806;28;20037;-74
2022/01/16 06:14:45;;;;;;;10.07;4.13;;;6.90;99.90;;;;;;5025471;28;20030;-74
2022/01/16 06:17:11;;;;;;;9.85;4.20;;;6.80;99.90;;;;;;5025593;28;20442;-74
2022/01/16 06:19:36;;;;;;;9.85;3.97;;;6.80;99.90;;;;;;5022327;28;20022;-74
2022/01/16 06:22:02;;;;;;;12.65;5.20;;;6.90;99.90;;;;;;5031871;28;20080;-74
2022/01/16 06:24:28;;;;;;;9.32;4.93;;;6.80;99.90;;;;;;5045822;28;20372;-74
2022/01/16 06:26:54;;;;;;;9.68;4.32;;;6.80;99.90;;;;;;5044182;28;20108;-74
2022/01/16 06:29:20;;;;;;;6.93;4.20;;;6.80;99.90;;;;;;5044304;28;20057;-74
2022/01/16 06:31:45;;;;;;;10.93;4.93;;;6.90;99.90;;;;;;5043871;28;20025;-74
2022/01/16 06:34:12;;;;;;;10.57;5.03;;;6.90;99.90;;;;;;5043360;28;20028;-74
2022/01/16 06:36:38;;;;;;;9.30;5.20;;;7.00;99.90;;;;;;5043267;28;20053;-74
2022/01/16 06:39:06;;;;;;;12.02;5.35;;;7.00;99.90;;;;;;5044186;28;20068;-74
2022/01/16 06:41:33;;;;;;;10.77;5.28;;;7.00;99.90;;;;;;5043742;28;20383;-74
2022/01/16 06:44:00;;;;;;;14.35;5.65;;;7.00;99.90;;;;;;5043563;28;20029;-74
2022/01/16 06:46:25;;;;;;;14.52;6.05;;;7.00;99.90;;;;;;5044190;28;20025;-74
2022/01/16 06:48:51;;;;;;;11.73;5.53;;;7.00;99.90;;;;;;5042957;28;20021;-74
2022/01/16 06:51:19;;;;;;;10.40;5.20;;;7.10;99.90;;;;;;5043431;28;20374;-74
2022/01/16 06:53:49;;;;;;;12.82;5.90;;;7.10;99.90;;;;;;5043674;28;20044;-74
2022/01/16 06:56:15;;;;;;;11.98;5.55;;;7.10;99.90;;;;;;5042886;28;20060;-74
2022/01/16 06:58:41;;;;;;;11.95;5.88;;;7.10;99.90;;;;;;5043293;28;20049;-74
2022/01/16 07:01:07;;;;;;;11.60;5.90;;;7.20;99.90;;;;;;5043714;28;20026;-76
2022/01/16 07:03:33;;;;;;;13.77;6.25;;;7.20;99.90;;;;;;5042966;28;20318;-75
2022/01/16 07:06:00;;;;;;;14.85;7.03;;;7.20;99.90;;;;;;5042838;28;20025;-76
2022/01/16 07:08:26;;;;;;;13.05;6.45;;;7.20;99.90;;;;;;5043714;28;20060;-75
2022/01/16 07:11:00;;;;;;;14.38;6.63;;;7.20;99.90;;;;;;5043592;28;20443;-76
2022/01/16 07:13:27;;;;;;;12.98;6.10;;;7.20;99.90;;;;;;5026332;28;20029;-76
2022/01/16 07:15:53;;;;;;;18.17;6.47;;;7.20;99.90;;;;;;5044872;28;20028;-75
2022/01/16 07:18:19;;;;;;;14.13;6.35;;;7.20;99.90;;;;;;5044882;28;20033;-76
2022/01/16 07:20:46;;;;;;;17.30;7.03;;;7.20;99.90;;;;;;5044392;28;20021;-76
2022/01/16 07:23:15;;;;;;;14.25;6.78;;;7.20;99.90;;;;;;5043869;28;20426;-76
2022/01/16 07:25:41;;;;;;;14.75;7.45;;;7.20;99.90;;;;;;5044364;28;20087;-76
2022/01/16 07:28:08;;;;;;;12.95;6.70;;;7.20;99.90;;;;;;5044508;28;20108;-75
2022/01/16 07:30:36;;;;;;;20.83;7.18;;;7.30;99.90;;;;;;5044401;28;20468;-76
2022/01/16 07:33:05;;;;;;;18.08;7.43;;;7.30;99.90;;;;;;5043612;28;20017;-75
2022/01/16 07:35:31;;;;;;;14.35;7.43;;;7.30;99.90;;;;;;5043118;28;20021;-76
2022/01/16 07:37:57;;;;;;;19.60;7.43;;;7.30;99.90;;;;;;5044471;28;20056;-76
2022/01/16 07:40:24;;;;;;;18.23;7.55;;;7.30;99.90;;;;;;5043486;28;20432;-76
2022/01/16 07:42:50;;;;;;;19.15;7.80;;;7.30;99.90;;;;;;5047512;28;20024;-76
2022/01/16 07:45:16;;;;;;;19.92;8.85;;;7.30;99.90;;;;;;5024644;28;20471;-76
2022/01/16 07:47:41;;;;;;;20.85;8.48;;;7.40;99.90;;;;;;5049373;28;20116;-75
2022/01/16 07:50:08;;;;;;;17.23;8.30;;;7.40;99.90;;;;;;5042603;28;20021;-75
2022/01/16 07:52:34;;;;;;;16.95;8.45;;;7.40;99.90;;;;;;5049608;28;20013;-75
2022/01/16 07:55:00;;;;;;;22.48;8.85;;;7.40;99.90;;;;;;5048824;28;20036;-75
2022/01/16 07:57:26;;;;;;;23.40;10.70;;;7.40;99.90;;;;;;5050746;28;20029;-75
2022/01/16 07:59:51;;;;;;;18.80;8.68;;;7.40;99.90;;;;;;5052841;28;20036;-75
2022/01/16 08:02:17;;;;;;;17.27;9.18;;;7.40;99.90;;;;;;5054840;28;20094;-75
2022/01/16 08:04:43;;;;;;;18.02;8.73;;;7.40;99.90;;;;;;5050123;28;20031;-75
2022/01/16 08:07:10;;;;;;;20.13;9.55;;;7.40;99.90;;;;;;5046770;28;20057;-76
2022/01/16 08:09:39;;;;;;;17.08;8.15;;;7.40;99.90;;;;;;5048519;28;20028;-76
2022/01/16 08:12:07;;;;;;;18.17;8.90;;;7.40;99.90;;;;;;5052586;28;20052;-76
2022/01/16 08:14:33;;;;;;;17.30;8.70;;;7.40;99.90;;;;;;5047203;28;20054;-76
2022/01/16 08:17:00;;;;;;;16.05;7.60;;;7.40;99.90;;;;;;5050619;28;20021;-77
2022/01/16 08:19:26;;;;;;;24.55;11.63;;;7.40;99.90;;;;;;5047694;28;20037;-75
2022/01/16 08:21:52;;;;;;;31.30;13.48;;;7.40;99.90;;;;;;5046185;28;20045;-75
2022/01/16 08:24:17;;;;;;;42.20;16.33;;;7.30;99.90;;;;;;5047592;28;20013;-75
2022/01/16 08:26:43;;;;;;;49.20;21.40;;;7.30;99.90;;;;;;5052962;28;20060;-75
2022/01/16 08:29:09;;;;;;;55.83;24.10;;;7.20;99.90;;;;;;5050531;28;20024;-75
2022/01/16 08:31:35;;;;;;;56.30;25.83;;;7.10;99.90;;;;;;5045231;28;20022;-75
2022/01/16 08:34:01;;;;;;;62.63;27.40;;;7.00;99.90;;;;;;5050935;28;20029;-75
2022/01/16 08:36:26;;;;;;;63.45;26.60;;;6.90;99.90;;;;;;5054695;28;20028;-75
2022/01/16 08:38:54;;;;;;;71.72;30.15;;;6.80;99.90;;;;;;5043282;28;20082;-74
2022/01/16 08:41:21;;;;;;;75.75;30.77;;;6.80;99.90;;;;;;5035935;28;20025;-74
2022/01/16 08:43:46;;;;;;;70.32;30.65;;;6.70;99.90;;;;;;5034252;28;20096;-74
2022/01/16 08:46:13;;;;;;;69.50;31.05;;;6.60;99.90;;;;;;5041567;28;20065;-74
2022/01/16 08:48:39;;;;;;;78.53;32.78;;;6.60;99.90;;;;;;5040805;28;20033;-74
2022/01/16 08:51:04;;;;;;;84.28;32.78;;;6.60;99.90;;;;;;5041716;28;20029;-74
2022/01/16 08:53:30;;;;;;;82.47;33.25;;;6.50;99.90;;;;;;5036964;28;20021;-75
2022/01/16 08:55:57;;;;;;;83.63;34.72;;;6.50;99.90;;;;;;5043036;28;20049;-74
2022/01/16 08:58:23;;;;;;;85.97;34.33;;;6.50;99.90;;;;;;5044454;28;20021;-74
2022/01/16 09:00:50;;;;;;;87.10;34.60;;;6.50;99.90;;;;;;5042603;28;20075;-74
2022/01/16 09:03:17;;;;;;;84.53;33.90;;;6.50;99.90;;;;;;5038554;28;20391;-74
2022/01/16 09:05:43;;;;;;;83.40;34.03;;;6.50;99.90;;;;;;5038494;28;20080;-74
2022/01/16 09:08:08;;;;;;;89.95;35.42;;;6.50;99.90;;;;;;5040419;28;20022;-75
2022/01/16 09:10:34;;;;;;;94.97;36.95;;;6.50;99.90;;;;;;5037518;28;20029;-74
2022/01/16 09:12:59;;;;;;;95.03;35.58;;;6.50;99.90;;;;;;5037303;28;20025;-75
2022/01/16 09:15:25;;;;;;;93.32;35.97;;;6.50;99.90;;;;;;5034212;28;20022;-74
2022/01/16 09:17:51;;;;;;;88.13;34.65;;;6.50;99.90;;;;;;5045494;28;20038;-74
2022/01/16 09:20:16;;;;;;;93.38;35.88;;;6.40;99.90;;;;;;5037224;28;20022;-74
2022/01/16 09:22:44;;;;;;;96.25;37.25;;;6.40;99.90;;;;;;5051073;28;20101;-74
2022/01/16 09:25:10;;;;;;;102.45;38.20;;;6.50;99.90;;;;;;5051100;28;20025;-74
2022/01/16 09:27:36;;;;;;;102.20;37.83;;;6.50;99.90;;;;;;5058493;28;20501;-74
2022/01/16 09:30:06;;;;;;;105.18;38.67;;;6.40;99.90;;;;;;5059225;28;20055;-74
2022/01/16 09:32:33;;;;;;;99.35;38.92;;;6.40;99.90;;;;;;5058770;28;20082;-74
2022/01/16 09:35:03;;;;;;;102.55;38.45;;;6.40;99.90;;;;;;5054254;28;20032;-74
2022/01/16 09:37:28;;;;;;;104.45;38.65;;;6.40;99.90;;;;;;5023179;28;20041;-74
2022/01/16 09:39:54;;;;;;;95.03;37.45;;;6.40;99.90;;;;;;5017997;28;20034;-74
2022/01/16 09:42:22;;;;;;;99.60;38.80;;;6.50;99.90;;;;;;5044169;28;20021;-74
2022/01/16 09:44:48;;;;;;;109.07;38.85;;;6.50;99.90;;;;;;5044664;28;20032;-74
2022/01/16 09:47:14;;;;;;;104.35;38.72;;;6.50;99.90;;;;;;5050257;28;20508;-73
2022/01/16 09:49:40;;;;;;;103.32;38.58;;;6.50;99.90;;;;;;5045653;28;20075;-74
2022/01/16 09:52:06;;;;;;;102.03;39.65;;;6.50;99.90;;;;;;5038511;28;20029;-74
2022/01/16 09:54:32;;;;;;;110.78;39.83;;;6.50;99.90;;;;;;5044172;28;20029;-74
2022/01/16 09:56:57;;;;;;;107.07;40.60;;;6.40;99.90;;;;;;5034683;28;20025;-74
2022/01/16 09:59:23;;;;;;;106.25;39.45;;;6.40;99.90;;;;;;5034162;28;20030;-75
2022/01/16 10:01:49;;;;;;;106.97;39.60;;;6.40;99.90;;;;;;5028629;28;20435;-75
2022/01/16 10:04:47;;;;;;;110.55;41.33;;;6.40;99.90;;;;;;5029737;28;20053;-74
2022/01/16 10:07:15;;;;;;;110.55;39.95;;;6.30;99.90;;;;;;4996920;28;20086;-74
2022/01/16 10:09:44;;;;;;;119.10;40.70;;;6.30;99.90;;;;;;5053819;28;20099;-74
2022/01/16 10:12:16;;;;;;;115.93;41.38;;;6.30;99.90;;;;;;5050878;28;20386;-74
2022/01/16 10:14:51;;;;;;;118.47;41.38;;;6.30;99.90;;;;;;5059067;28;20025;-74
2022/01/16 10:17:18;;;;;;;121.65;41.78;;;6.30;99.90;;;;;;5044714;28;20064;-74
2022/01/16 10:19:44;;;;;;;120.22;41.67;;;6.30;99.90;;;;;;5044740;28;20410;-74
2022/01/16 10:22:12;;;;;;;127.38;43.75;;;6.30;99.90;;;;;;5041947;28;20042;-74
2022/01/16 10:24:39;;;;;;;129.68;42.15;;;6.30;99.90;;;;;;5041944;28;20041;-74
2022/01/16 10:27:07;;;;;;;136.05;44.40;;;6.30;99.90;;;;;;5040939;28;20025;-74
2022/01/16 10:29:36;;;;;;;135.18;43.55;;;6.30;99.90;;;;;;5041023;28;20537;-74
2022/01/16 10:32:23;;;;;;;129.60;44.47;;;6.30;99.90;;;;;;5040394;28;20019;-74
2022/01/16 10:34:52;;;;;;;127.50;43.00;;;6.40;99.90;;;;;;5041265;28;20030;-74
2022/01/16 10:37:36;;;;;;;126.40;43.20;;;6.50;99.90;;;;;;5040006;28;20025;-74
2022/01/16 10:40:18;;;;;;;135.30;44.88;;;6.50;99.90;;;;;;5040442;28;20045;-74
2022/01/16 10:42:57;;;;;;;137.32;44.30;;;6.60;99.90;;;;;;5038842;28;20056;-74
2022/01/16 10:45:28;;;;;;;131.50;43.85;;;6.60;99.90;;;;;;5039821;28;20029;-74
2022/01/16 10:47:56;;;;;;;133.95;46.17;;;6.70;99.90;;;;;;5038576;28;20560;-74
2022/01/16 10:50:43;;;;;;;130.27;43.35;;;6.70;99.90;;;;;;5040101;28;20411;-74
2022/01/16 10:53:17;;;;;;;130.20;44.92;;;6.70;99.90;;;;;;5039831;28;20026;-74
2022/01/16 10:55:47;;;;;;;128.15;43.72;;;6.70;99.90;;;;;;5041649;28;20038;-74
2022/01/16 10:58:22;;;;;;;129.98;44.72;;;6.70;99.90;;;;;;5040431;28;20029;-74
2022/01/16 11:00:51;;;;;;;;;;;6.80;99.90;;;;;;5040583;28;20025;-74
2022/01/16 11:03:18;;;;;;;130.38;43.08;;;6.80;99.90;;;;;;5040969;28;19905;-74
2022/01/16 11:05:45;;;;;;;124.90;43.80;;;6.80;99.90;;;;;;5028729;28;20331;-74
2022/01/16 11:08:22;;;;;;;124.53;42.05;;;6.80;99.90;;;;;;5039769;28;20025;-74
2022/01/16 11:10:56;;;;;;;130.75;43.60;;;6.90;99.90;;;;;;5038120;28;20037;-74
2022/01/16 11:13:24;;;;;;;114.68;40.92;;;6.90;99.90;;;;;;5041128;28;20025;-74
2022/01/16 11:15:53;;;;;;;115.55;41.92;;;6.90;99.90;;;;;;5039820;28;20025;-74
2022/01/16 11:18:21;;;;;;;113.38;40.45;;;7.00;99.90;;;;;;5040563;28;20028;-74
2022/01/16 11:23:43;;;;;;;111.13;40.13;;;7.10;99.90;;;;;;5039982;28;20127;-74
2022/01/16 11:26:09;;;;;;;105.90;38.00;;;7.10;99.90;;;;;;5036828;28;20049;-74
2022/01/16 11:28:34;;;;;;;96.82;36.10;;;7.10;99.90;;;;;;5039721;28;20025;-74
2022/01/16 11:31:04;;;;;;;96.93;35.08;;;7.20;99.90;;;;;;5042198;28;20238;-74
2022/01/16 11:33:32;;;;;;;96.13;34.25;;;7.20;99.90;;;;;;5041810;28;20018;-74
2022/01/16 11:36:13;;;;;;;84.93;32.15;;;7.30;99.90;;;;;;5041595;28;20014;-74
2022/01/16 11:38:51;;;;;;;85.47;33.30;;;7.40;99.90;;;;;;5040536;28;20037;-74
2022/01/16 11:41:26;;;;;;;85.95;31.05;;;7.50;99.90;;;;;;5041006;28;20461;-75
2022/01/16 11:43:53;;;;;;;74.38;28.27;;;7.60;99.90;;;;;;5040708;28;20629;-74
2022/01/16 11:46:20;;;;;;;73.32;29.05;;;7.60;99.90;;;;;;5034972;28;20029;-74
2022/01/16 11:48:53;;;;;;;70.03;28.00;;;7.70;99.90;;;;;;5031384;28;20032;-74
2022/01/16 11:51:38;;;;;;;69.88;28.17;;;7.70;99.90;;;;;;5039700;28;20013;-74
2022/01/16 11:54:23;;;;;;;67.05;27.10;;;7.80;99.90;;;;;;5039522;28;20044;-74
2022/01/16 11:56:54;;;;;;;70.15;25.17;;;7.80;99.90;;;;;;5040508;28;20025;-74
2022/01/16 11:59:34;;;;;;;61.35;25.55;;;7.80;99.90;;;;;;5039863;28;20034;-74
2022/01/16 12:02:03;;;;;;;57.53;25.10;;;7.80;99.90;;;;;;5040601;28;20471;-74
2022/01/16 12:04:28;;;;;;;53.72;21.52;;;7.90;99.90;;;;;;5038881;28;20087;-74
2022/01/16 12:07:17;;;;;;;51.05;22.73;;;7.90;99.90;;;;;;5038423;28;20025;-74
2022/01/16 12:12:11;;;;;;;56.10;20.80;;;7.90;99.90;;;;;;5041844;28;20064;-74
2022/01/16 12:14:49;;;;;;;50.45;20.50;;;7.90;99.90;;;;;;5045123;28;20020;-74
2022/01/16 12:17:49;;;;;;;44.45;19.10;;;7.90;99.90;;;;;;5042723;28;20036;-74
2022/01/16 12:20:27;;;;;;;46.88;19.40;;;8.00;99.90;;;;;;5043474;28;20033;-74
2022/01/16 12:23:06;;;;;;;36.63;16.92;;;8.00;99.90;;;;;;5043024;28;20041;-74
2022/01/16 12:25:52;;;;;;;42.03;17.27;;;8.00;99.90;;;;;;5016579;28;20029;-74
2022/01/16 12:28:22;;;;;;;36.17;16.00;;;8.00;99.90;;;;;;5010189;28;20038;-75
2022/01/16 12:31:02;;;;;;;32.58;15.77;;;8.00;99.90;;;;;;5039954;28;20064;-74
2022/01/16 12:33:30;;;;;;;36.63;15.85;;;8.00;99.90;;;;;;5038774;28;20164;-74
2022/01/16 12:36:08;;;;;;;29.27;13.77;;;8.00;99.90;;;;;;5033230;28;20028;-74
2022/01/16 12:38:39;;;;;;;30.45;13.80;;;8.00;99.90;;;;;;5040786;28;20036;-74
2022/01/16 12:41:12;;;;;;;28.08;13.30;;;8.00;99.90;;;;;;5037014;28;20037;-74
2022/01/16 12:43:41;;;;;;;25.83;12.50;;;8.00;99.90;;;;;;5038861;28;20025;-75
2022/01/16 12:46:13;;;;;;;22.25;10.90;;;8.00;99.90;;;;;;5036827;28;20481;-74
2022/01/16 12:48:44;;;;;;;18.48;9.98;;;8.00;99.90;;;;;;5039589;28;20030;-75
2022/01/16 12:51:11;;;;;;;18.27;8.60;;;8.00;99.90;;;;;;5040213;28;20018;-75
2022/01/16 12:53:42;;;;;;;19.27;8.98;;;8.00;99.90;;;;;;5040897;28;20022;-75
2022/01/16 12:56:24;;;;;;;18.23;8.43;;;8.00;99.90;;;;;;5041507;28;20093;-74
2022/01/16 12:58:54;;;;;;;18.85;9.75;;;8.00;99.90;;;;;;5039311;28;20034;-75
2022/01/16 13:01:20;;;;;;;21.40;10.00;;;8.00;99.90;;;;;;5040410;28;20135;-74
2022/01/16 13:03:46;;;;;;;23.65;11.13;;;8.00;99.90;;;;;;5040518;28;20022;-75
2022/01/16 13:06:22;;;;;;;22.45;10.55;;;8.00;99.90;;;;;;5040412;28;20026;-75
2022/01/16 13:08:55;;;;;;;23.15;11.02;;;8.00;99.90;;;;;;5039378;28;20030;-75
2022/01/16 13:11:22;;;;;;;22.80;10.68;;;8.00;99.90;;;;;;5039554;28;20032;-75
2022/01/16 13:13:48;;;;;;;25.17;11.13;;;8.00;99.90;;;;;;5039147;28;20120;-75
2022/01/16 13:16:17;;;;;;;26.35;12.25;;;8.00;99.90;;;;;;5040422;28;20037;-74
2022/01/16 13:19:10;;;;;;;27.85;13.00;;;8.00;99.90;;;;;;5040433;28;20026;-74
2022/01/16 13:21:49;;;;;;;30.70;15.52;;;8.00;99.90;;;;;;5039810;28;20045;-74
2022/01/16 13:24:37;;;;;;;35.17;17.02;;;8.00;99.90;;;;;;5035450;28;20108;-74
2022/01/16 13:27:08;;;;;;;39.88;20.05;;;8.00;99.90;;;;;;5036175;28;20457;-73
2022/01/16 13:29:42;;;;;;;43.00;21.30;;;8.00;99.90;;;;;;5047216;28;20501;-73